Key West, FL

2:58 PM EDT on September 22, 2014 (GMT -0400)
Key West International | Change Station
CLOSE
Current Station
Airport
Location: Key West,
Elevation: 0 ft
Nearby Weather Stations

Elev 0 ft 24.56 °N, 81.75 °W | Updated 42 minutes ago

Partly Cloudy
Partly Cloudy
81 °F
Feels Like 85 °F
N
13
Wind Variable Wind from SSE

Today
High -- | Low -- °F
--% Chance of Precip.
Yesterday
High -- | Low -- °F
Precip. -- in
7:15 AM 7:23 PM
Waning Crescent, 2% visible
Pressure 30.00 in
Visibility 10.0 miles
Clouds Few 11000 ft
Heat Index 85 °F
Dew Point 71 °F
Humidity 72%
Rainfall 0.00 in
Snow Depth Not available.
UV 12 out of 12
Pollen 2.80 out of 12
Air Quality Not available.
Flu Activity Not available.
SPECI KEYW 221816Z 16011KT 10SM FEW110 27/22 A3000 RMK AO2 LTG DSNT SW AND W TSB1755E10 T02720217

More Conditions Fewer Conditions

Pressure 30.00 in
Visibility 10.0 miles
Clouds Few 11000 ft
Heat Index 85 °F
Dew Point 71 °F
Humidity 72%
Rainfall 0.00 in
Snow Depth Not available.
UV 12 out of 12
Pollen 2.80 out of 12
Air Quality Not available.
Flu Activity Not available.
SPECI KEYW 221816Z 16011KT 10SM FEW110 27/22 A3000 RMK AO2 LTG DSNT SW AND W TSB1755E10 T02720217

More Conditions Fewer Conditions

Nowcast | as of 1:29 PM EDT on September 22, 2014

Through 300 PM...scattered showers and thunderstorms extending from the Florida Straits to the offshore Gulf waters and Florida Bay...will drift slowly northward. Boaters should be prepared for wind gusts in excess of 25 knots and frequent lightning associated with the stronger cells. Rain across the middle and Upper Keys is expected to diminish in coverage and intensity through the middle of the afternoon.

×

10-Day Weather Forecast

Almanac

Astronomy

Sep. 22, 2014 Rise Set
Actual Time 7:15 AM EDT 7:23 PM EDT
Civil Twilight 6:52 AM EDT 7:46 PM EDT
Nautical Twilight 6:26 AM EDT 8:12 PM EDT
Astronomical Twilight 5:59 AM EDT 8:39 PM EDT
Moon 5:50 AM EDT 6:26 PM EDT
Length of Visible Light 12h 53m
Length of Day
12h 07m
Tomorrow will be 1m 26s shorter.
Waning Crescent, 2% of the Moon is Illuminated
Today
Waning Crescent
Sep 24
New
Oct 1
First Quarter
Oct 8
Full
Oct 15
Last Quarter

Today's Extremes

State Highs State Lows

Community

WunderPhotos

Upload Photos

1,755,512 photos uploaded!

WunderBlogs® & News

Nearby

Snow Depth

Station Depth Elevation
No new snow has been reported.

Earthquake Activity

City Distance Mag. Time & Date
No recent earthquake activity has been reported nearby.
Minimum magnitude displayed is 2.5.

Coastal Water Temperatures

Place Temperature
No Stations Reporting

Nearby Weather Stations